sensor_id;sensor_type;location;lat;lon;timestamp;P1;durP1;ratioP1;P2;durP2;ratioP2
32196;SDS011;18697;42.770;23.400;2023-08-12T00:02:11;4.90;;;2.90;;
32196;SDS011;18697;42.770;23.400;2023-08-12T00:04:36;3.08;;;2.78;;
32196;SDS011;18697;42.770;23.400;2023-08-12T00:07:02;3.53;;;2.50;;
32196;SDS011;18697;42.770;23.400;2023-08-12T00:09:27;3.63;;;2.70;;
32196;SDS011;18697;42.770;23.400;2023-08-12T00:11:52;2.70;;;2.50;;
32196;SDS011;18697;42.770;23.400;2023-08-12T00:14:18;4.35;;;2.90;;
32196;SDS011;18697;42.770;23.400;2023-08-12T00:16:45;3.42;;;3.13;;
32196;SDS011;18697;42.770;23.400;2023-08-12T00:19:10;6.80;;;3.45;;
32196;SDS011;18697;42.770;23.400;2023-08-12T00:21:35;3.05;;;2.75;;
32196;SDS011;18697;42.770;23.400;2023-08-12T00:24:01;3.53;;;2.70;;
32196;SDS011;18697;42.770;23.400;2023-08-12T00:26:26;7.15;;;2.83;;
32196;SDS011;18697;42.770;23.400;2023-08-12T00:28:52;4.85;;;2.60;;
32196;SDS011;18697;42.770;23.400;2023-08-12T00:31:17;3.38;;;3.08;;
32196;SDS011;18697;42.770;23.400;2023-08-12T00:33:43;4.57;;;3.00;;
32196;SDS011;18697;42.770;23.400;2023-08-12T00:36:08;4.90;;;3.28;;
32196;SDS011;18697;42.770;23.400;2023-08-12T00:38:33;3.15;;;2.63;;
32196;SDS011;18697;42.770;23.400;2023-08-12T00:40:59;3.38;;;2.88;;
32196;SDS011;18697;42.770;23.400;2023-08-12T00:43:24;3.13;;;2.90;;
32196;SDS011;18697;42.770;23.400;2023-08-12T00:45:50;5.80;;;2.47;;
32196;SDS011;18697;42.770;23.400;2023-08-12T00:48:15;3.28;;;2.83;;
32196;SDS011;18697;42.770;23.400;2023-08-12T00:50:42;2.88;;;2.67;;
32196;SDS011;18697;42.770;23.400;2023-08-12T00:53:08;2.75;;;2.55;;
32196;SDS011;18697;42.770;23.400;2023-08-12T00:55:34;3.00;;;2.78;;
32196;SDS011;18697;42.770;23.400;2023-08-12T00:58:00;3.05;;;2.53;;
32196;SDS011;18697;42.770;23.400;2023-08-12T01:00:27;2.85;;;2.55;;
32196;SDS011;18697;42.770;23.400;2023-08-12T01:02:52;3.33;;;2.95;;
32196;SDS011;18697;42.770;23.400;2023-08-12T01:05:19;2.60;;;2.40;;
32196;SDS011;18697;42.770;23.400;2023-08-12T01:07:45;6.30;;;2.33;;
32196;SDS011;18697;42.770;23.400;2023-08-12T01:10:11;3.65;;;2.78;;
32196;SDS011;18697;42.770;23.400;2023-08-12T01:12:50;2.83;;;2.47;;
32196;SDS011;18697;42.770;23.400;2023-08-12T01:15:23;3.15;;;2.20;;
32196;SDS011;18697;42.770;23.400;2023-08-12T01:17:50;2.78;;;2.55;;
32196;SDS011;18697;42.770;23.400;2023-08-12T01:20:19;2.63;;;2.42;;
32196;SDS011;18697;42.770;23.400;2023-08-12T01:22:52;2.72;;;2.50;;
32196;SDS011;18697;42.770;23.400;2023-08-12T01:25:23;2.67;;;2.47;;
32196;SDS011;18697;42.770;23.400;2023-08-12T01:27:49;2.55;;;2.35;;
32196;SDS011;18697;42.770;23.400;2023-08-12T01:30:15;2.95;;;2.38;;
32196;SDS011;18697;42.770;23.400;2023-08-12T01:35:35;2.67;;;2.47;;
32196;SDS011;18697;42.770;23.400;2023-08-12T01:38:06;4.22;;;2.35;;
32196;SDS011;18697;42.770;23.400;2023-08-12T01:40:35;3.03;;;2.53;;
32196;SDS011;18697;42.770;23.400;2023-08-12T01:43:03;4.05;;;2.60;;
32196;SDS011;18697;42.770;23.400;2023-08-12T01:45:32;4.10;;;2.60;;
32196;SDS011;18697;42.770;23.400;2023-08-12T01:47:57;3.28;;;2.38;;
32196;SDS011;18697;42.770;23.400;2023-08-12T01:50:23;2.72;;;2.50;;
32196;SDS011;18697;42.770;23.400;2023-08-12T01:52:49;3.05;;;2.75;;
32196;SDS011;18697;42.770;23.400;2023-08-12T01:55:14;3.90;;;2.67;;
32196;SDS011;18697;42.770;23.400;2023-08-12T01:57:40;3.20;;;2.90;;
32196;SDS011;18697;42.770;23.400;2023-08-12T02:00:05;4.68;;;2.60;;
32196;SDS011;18697;42.770;23.400;2023-08-12T02:02:31;2.95;;;2.65;;
32196;SDS011;18697;42.770;23.400;2023-08-12T02:04:57;3.97;;;2.50;;
32196;SDS011;18697;42.770;23.400;2023-08-12T02:07:22;2.83;;;2.63;;
32196;SDS011;18697;42.770;23.400;2023-08-12T02:09:48;4.10;;;2.90;;
32196;SDS011;18697;42.770;23.400;2023-08-12T02:12:13;3.85;;;2.85;;
32196;SDS011;18697;42.770;23.400;2023-08-12T02:14:39;3.58;;;2.70;;
32196;SDS011;18697;42.770;23.400;2023-08-12T02:17:04;3.78;;;2.33;;
32196;SDS011;18697;42.770;23.400;2023-08-12T02:19:33;3.42;;;3.08;;
32196;SDS011;18697;42.770;23.400;2023-08-12T02:21:59;2.50;;;2.30;;
32196;SDS011;18697;42.770;23.400;2023-08-12T02:24:26;3.88;;;2.60;;
32196;SDS011;18697;42.770;23.400;2023-08-12T02:26:52;2.80;;;2.50;;
32196;SDS011;18697;42.770;23.400;2023-08-12T02:29:17;5.43;;;2.80;;
32196;SDS011;18697;42.770;23.400;2023-08-12T02:31:42;3.58;;;2.22;;
32196;SDS011;18697;42.770;23.400;2023-08-12T02:34:08;2.78;;;2.58;;
32196;SDS011;18697;42.770;23.400;2023-08-12T02:36:33;3.22;;;2.50;;
32196;SDS011;18697;42.770;23.400;2023-08-12T02:38:59;2.50;;;2.25;;
32196;SDS011;18697;42.770;23.400;2023-08-12T02:41:24;5.43;;;2.33;;
32196;SDS011;18697;42.770;23.400;2023-08-12T02:43:49;5.32;;;2.40;;
32196;SDS011;18697;42.770;23.400;2023-08-12T02:46:15;2.80;;;2.50;;
32196;SDS011;18697;42.770;23.400;2023-08-12T02:48:40;3.90;;;2.58;;
32196;SDS011;18697;42.770;23.400;2023-08-12T02:51:06;3.45;;;2.85;;
32196;SDS011;18697;42.770;23.400;2023-08-12T02:53:32;2.92;;;2.63;;
32196;SDS011;18697;42.770;23.400;2023-08-12T02:56:00;2.92;;;2.63;;
32196;SDS011;18697;42.770;23.400;2023-08-12T02:58:26;3.97;;;3.03;;
32196;SDS011;18697;42.770;23.400;2023-08-12T03:00:51;5.20;;;2.88;;
32196;SDS011;18697;42.770;23.400;2023-08-12T03:03:16;3.90;;;3.08;;
32196;SDS011;18697;42.770;23.400;2023-08-12T03:05:45;6.07;;;2.88;;
32196;SDS011;18697;42.770;23.400;2023-08-12T03:08:11;3.33;;;2.97;;
32196;SDS011;18697;42.770;23.400;2023-08-12T03:10:38;2.90;;;2.70;;
32196;SDS011;18697;42.770;23.400;2023-08-12T03:13:04;2.60;;;2.40;;
32196;SDS011;18697;42.770;23.400;2023-08-12T03:15:29;4.95;;;2.95;;
32196;SDS011;18697;42.770;23.400;2023-08-12T03:17:55;3.53;;;3.00;;
32196;SDS011;18697;42.770;23.400;2023-08-12T03:20:21;3.05;;;2.75;;
32196;SDS011;18697;42.770;23.400;2023-08-12T03:22:46;6.97;;;3.63;;
32196;SDS011;18697;42.770;23.400;2023-08-12T03:25:12;3.22;;;2.92;;
32196;SDS011;18697;42.770;23.400;2023-08-12T03:27:39;6.55;;;3.20;;
32196;SDS011;18697;42.770;23.400;2023-08-12T03:30:05;3.00;;;2.80;;
32196;SDS011;18697;42.770;23.400;2023-08-12T03:32:32;3.60;;;2.83;;
32196;SDS011;18697;42.770;23.400;2023-08-12T03:34:58;4.03;;;2.78;;
32196;SDS011;18697;42.770;23.400;2023-08-12T03:37:24;6.07;;;3.03;;
32196;SDS011;18697;42.770;23.400;2023-08-12T03:39:50;2.97;;;2.72;;
32196;SDS011;18697;42.770;23.400;2023-08-12T03:42:15;3.17;;;2.88;;
32196;SDS011;18697;42.770;23.400;2023-08-12T03:44:41;4.97;;;2.83;;
32196;SDS011;18697;42.770;23.400;2023-08-12T03:47:08;4.53;;;3.60;;
32196;SDS011;18697;42.770;23.400;2023-08-12T03:49:33;4.50;;;2.83;;
32196;SDS011;18697;42.770;23.400;2023-08-12T03:51:58;5.00;;;3.30;;
32196;SDS011;18697;42.770;23.400;2023-08-12T03:54:24;4.35;;;3.25;;
32196;SDS011;18697;42.770;23.400;2023-08-12T03:56:49;3.65;;;2.90;;
32196;SDS011;18697;42.770;23.400;2023-08-12T03:59:15;3.60;;;2.90;;
32196;SDS011;18697;42.770;23.400;2023-08-12T04:01:40;5.53;;;3.78;;
32196;SDS011;18697;42.770;23.400;2023-08-12T04:04:05;5.43;;;4.90;;
32196;SDS011;18697;42.770;23.400;2023-08-12T04:06:31;5.10;;;3.10;;
32196;SDS011;18697;42.770;23.400;2023-08-12T04:08:56;4.10;;;3.20;;
32196;SDS011;18697;42.770;23.400;2023-08-12T04:11:21;3.80;;;3.50;;
32196;SDS011;18697;42.770;23.400;2023-08-12T04:13:47;3.20;;;2.90;;
32196;SDS011;18697;42.770;23.400;2023-08-12T04:16:12;4.10;;;3.08;;
32196;SDS011;18697;42.770;23.400;2023-08-12T04:18:38;3.35;;;2.95;;
32196;SDS011;18697;42.770;23.400;2023-08-12T04:21:03;2.90;;;2.70;;
32196;SDS011;18697;42.770;23.400;2023-08-12T04:23:28;3.95;;;2.83;;
32196;SDS011;18697;42.770;23.400;2023-08-12T04:25:54;3.05;;;2.63;;
32196;SDS011;18697;42.770;23.400;2023-08-12T04:28:19;3.53;;;2.78;;
32196;SDS011;18697;42.770;23.400;2023-08-12T04:30:45;3.33;;;2.70;;
32196;SDS011;18697;42.770;23.400;2023-08-12T04:33:12;3.53;;;2.65;;
32196;SDS011;18697;42.770;23.400;2023-08-12T04:35:38;3.95;;;2.53;;
32196;SDS011;18697;42.770;23.400;2023-08-12T04:38:04;3.83;;;2.78;;
32196;SDS011;18697;42.770;23.400;2023-08-12T04:40:29;3.55;;;2.78;;
32196;SDS011;18697;42.770;23.400;2023-08-12T04:42:55;6.93;;;2.72;;
32196;SDS011;18697;42.770;23.400;2023-08-12T04:45:20;3.65;;;2.78;;
32196;SDS011;18697;42.770;23.400;2023-08-12T04:47:45;2.65;;;2.45;;
32196;SDS011;18697;42.770;23.400;2023-08-12T04:50:11;2.88;;;2.55;;
32196;SDS011;18697;42.770;23.400;2023-08-12T04:52:36;4.40;;;2.80;;
32196;SDS011;18697;42.770;23.400;2023-08-12T04:55:01;4.15;;;3.40;;
32196;SDS011;18697;42.770;23.400;2023-08-12T04:57:28;7.05;;;4.00;;
32196;SDS011;18697;42.770;23.400;2023-08-12T04:59:53;5.57;;;4.00;;
32196;SDS011;18697;42.770;23.400;2023-08-12T05:02:20;4.95;;;3.60;;
32196;SDS011;18697;42.770;23.400;2023-08-12T05:04:49;3.75;;;3.35;;
32196;SDS011;18697;42.770;23.400;2023-08-12T05:07:15;4.03;;;3.63;;
32196;SDS011;18697;42.770;23.400;2023-08-12T05:09:41;4.63;;;3.70;;
32196;SDS011;18697;42.770;23.400;2023-08-12T05:12:08;4.80;;;3.30;;
32196;SDS011;18697;42.770;23.400;2023-08-12T05:14:34;3.53;;;3.13;;
32196;SDS011;18697;42.770;23.400;2023-08-12T05:17:00;4.82;;;3.25;;
32196;SDS011;18697;42.770;23.400;2023-08-12T05:19:25;4.05;;;3.00;;
32196;SDS011;18697;42.770;23.400;2023-08-12T05:21:50;5.55;;;3.58;;
32196;SDS011;18697;42.770;23.400;2023-08-12T05:24:16;6.80;;;3.60;;
32196;SDS011;18697;42.770;23.400;2023-08-12T05:26:41;4.60;;;4.13;;
32196;SDS011;18697;42.770;23.400;2023-08-12T05:29:07;8.00;;;4.70;;
32196;SDS011;18697;42.770;23.400;2023-08-12T05:31:32;4.47;;;3.83;;
32196;SDS011;18697;42.770;23.400;2023-08-12T05:33:58;3.70;;;3.22;;
32196;SDS011;18697;42.770;23.400;2023-08-12T05:36:23;7.25;;;5.28;;
32196;SDS011;18697;42.770;23.400;2023-08-12T05:38:48;4.88;;;3.78;;
32196;SDS011;18697;42.770;23.400;2023-08-12T05:41:14;4.15;;;3.70;;
32196;SDS011;18697;42.770;23.400;2023-08-12T05:43:39;5.13;;;4.57;;
32196;SDS011;18697;42.770;23.400;2023-08-12T05:46:04;7.25;;;5.43;;
32196;SDS011;18697;42.770;23.400;2023-08-12T05:48:30;8.13;;;3.97;;
32196;SDS011;18697;42.770;23.400;2023-08-12T05:50:55;11.10;;;5.68;;
32196;SDS011;18697;42.770;23.400;2023-08-12T05:53:21;7.57;;;5.65;;
32196;SDS011;18697;42.770;23.400;2023-08-12T05:55:47;7.55;;;5.00;;
32196;SDS011;18697;42.770;23.400;2023-08-12T05:58:12;8.48;;;4.88;;
32196;SDS011;18697;42.770;23.400;2023-08-12T06:00:37;7.68;;;5.07;;
32196;SDS011;18697;42.770;23.400;2023-08-12T06:03:03;9.13;;;6.25;;
32196;SDS011;18697;42.770;23.400;2023-08-12T06:05:28;10.00;;;6.00;;
32196;SDS011;18697;42.770;23.400;2023-08-12T06:07:54;8.65;;;6.22;;
32196;SDS011;18697;42.770;23.400;2023-08-12T06:10:19;6.53;;;3.90;;
32196;SDS011;18697;42.770;23.400;2023-08-12T06:12:45;7.80;;;7.05;;
32196;SDS011;18697;42.770;23.400;2023-08-12T06:15:10;7.78;;;5.75;;
32196;SDS011;18697;42.770;23.400;2023-08-12T06:17:35;5.07;;;4.35;;
32196;SDS011;18697;42.770;23.400;2023-08-12T06:20:01;7.07;;;5.65;;
32196;SDS011;18697;42.770;23.400;2023-08-12T06:22:27;7.70;;;5.13;;
32196;SDS011;18697;42.770;23.400;2023-08-12T06:24:52;8.95;;;4.70;;
32196;SDS011;18697;42.770;23.400;2023-08-12T06:27:18;5.85;;;3.83;;
32196;SDS011;18697;42.770;23.400;2023-08-12T06:29:45;6.38;;;4.00;;
32196;SDS011;18697;42.770;23.400;2023-08-12T06:32:11;6.70;;;4.63;;
32196;SDS011;18697;42.770;23.400;2023-08-12T06:34:38;5.47;;;4.75;;
32196;SDS011;18697;42.770;23.400;2023-08-12T06:37:03;10.13;;;4.18;;
32196;SDS011;18697;42.770;23.400;2023-08-12T06:39:29;5.10;;;3.55;;
32196;SDS011;18697;42.770;23.400;2023-08-12T06:41:54;4.20;;;3.90;;
32196;SDS011;18697;42.770;23.400;2023-08-12T06:44:20;5.78;;;3.40;;
32196;SDS011;18697;42.770;23.400;2023-08-12T06:46:46;10.15;;;3.63;;
32196;SDS011;18697;42.770;23.400;2023-08-12T06:49:11;8.63;;;4.07;;
32196;SDS011;18697;42.770;23.400;2023-08-12T06:51:37;4.40;;;3.80;;
32196;SDS011;18697;42.770;23.400;2023-08-12T06:54:02;6.43;;;3.20;;
32196;SDS011;18697;42.770;23.400;2023-08-12T06:56:28;7.93;;;3.30;;
32196;SDS011;18697;42.770;23.400;2023-08-12T06:58:53;4.38;;;3.75;;
32196;SDS011;18697;42.770;23.400;2023-08-12T07:01:18;5.35;;;3.20;;
32196;SDS011;18697;42.770;23.400;2023-08-12T07:03:44;4.05;;;3.33;;
32196;SDS011;18697;42.770;23.400;2023-08-12T07:06:10;3.17;;;2.88;;
32196;SDS011;18697;42.770;23.400;2023-08-12T07:08:35;5.00;;;3.50;;
32196;SDS011;18697;42.770;23.400;2023-08-12T07:11:00;4.72;;;3.72;;
32196;SDS011;18697;42.770;23.400;2023-08-12T07:13:26;5.90;;;3.70;;
32196;SDS011;18697;42.770;23.400;2023-08-12T07:15:51;4.78;;;2.90;;
32196;SDS011;18697;42.770;23.400;2023-08-12T07:18:17;8.70;;;3.30;;
32196;SDS011;18697;42.770;23.400;2023-08-12T07:20:42;3.03;;;2.80;;
32196;SDS011;18697;42.770;23.400;2023-08-12T07:23:08;3.63;;;3.17;;
32196;SDS011;18697;42.770;23.400;2023-08-12T07:25:33;3.15;;;2.95;;
32196;SDS011;18697;42.770;23.400;2023-08-12T07:27:59;3.40;;;3.00;;
32196;SDS011;18697;42.770;23.400;2023-08-12T07:30:24;4.40;;;3.25;;
32196;SDS011;18697;42.770;23.400;2023-08-12T07:32:49;4.15;;;3.13;;
32196;SDS011;18697;42.770;23.400;2023-08-12T07:35:15;3.55;;;2.92;;
32196;SDS011;18697;42.770;23.400;2023-08-12T07:37:40;3.38;;;2.67;;
32196;SDS011;18697;42.770;23.400;2023-08-12T07:40:06;4.30;;;2.75;;
32196;SDS011;18697;42.770;23.400;2023-08-12T07:42:33;11.02;;;4.13;;
32196;SDS011;18697;42.770;23.400;2023-08-12T07:44:59;5.57;;;3.53;;
32196;SDS011;18697;42.770;23.400;2023-08-12T07:47:24;11.05;;;3.47;;
32196;SDS011;18697;42.770;23.400;2023-08-12T07:49:49;6.63;;;4.15;;
32196;SDS011;18697;42.770;23.400;2023-08-12T07:52:15;7.15;;;4.43;;
32196;SDS011;18697;42.770;23.400;2023-08-12T07:54:40;7.88;;;4.15;;
32196;SDS011;18697;42.770;23.400;2023-08-12T07:57:06;10.48;;;3.25;;
32196;SDS011;18697;42.770;23.400;2023-08-12T07:59:31;4.03;;;2.75;;
32196;SDS011;18697;42.770;23.400;2023-08-12T08:01:56;3.65;;;2.67;;
32196;SDS011;18697;42.770;23.400;2023-08-12T08:04:22;3.53;;;2.00;;
32196;SDS011;18697;42.770;23.400;2023-08-12T08:06:47;8.18;;;3.42;;
32196;SDS011;18697;42.770;23.400;2023-08-12T08:09:12;2.33;;;2.13;;
32196;SDS011;18697;42.770;23.400;2023-08-12T08:11:38;3.55;;;2.55;;
32196;SDS011;18697;42.770;23.400;2023-08-12T08:14:03;2.60;;;2.40;;
32196;SDS011;18697;42.770;23.400;2023-08-12T08:16:29;2.40;;;2.17;;
32196;SDS011;18697;42.770;23.400;2023-08-12T08:18:54;2.33;;;2.10;;
32196;SDS011;18697;42.770;23.400;2023-08-12T08:21:20;3.00;;;1.90;;
32196;SDS011;18697;42.770;23.400;2023-08-12T08:23:45;4.90;;;2.40;;
32196;SDS011;18697;42.770;23.400;2023-08-12T08:26:10;3.25;;;2.60;;
32196;SDS011;18697;42.770;23.400;2023-08-12T08:28:37;4.05;;;2.03;;
32196;SDS011;18697;42.770;23.400;2023-08-12T08:31:03;2.30;;;2.10;;
32196;SDS011;18697;42.770;23.400;2023-08-12T08:33:29;2.45;;;2.25;;
32196;SDS011;18697;42.770;23.400;2023-08-12T08:35:54;2.22;;;1.98;;
32196;SDS011;18697;42.770;23.400;2023-08-12T08:38:20;2.42;;;2.22;;
32196;SDS011;18697;42.770;23.400;2023-08-12T08:40:45;2.28;;;2.08;;
32196;SDS011;18697;42.770;23.400;2023-08-12T08:43:11;2.60;;;1.90;;
32196;SDS011;18697;42.770;23.400;2023-08-12T08:45:40;2.83;;;2.05;;
32196;SDS011;18697;42.770;23.400;2023-08-12T08:48:07;2.45;;;2.28;;
32196;SDS011;18697;42.770;23.400;2023-08-12T08:50:34;3.13;;;2.30;;
32196;SDS011;18697;42.770;23.400;2023-08-12T08:53:01;5.72;;;2.40;;
32196;SDS011;18697;42.770;23.400;2023-08-12T08:55:29;3.15;;;2.33;;
32196;SDS011;18697;42.770;23.400;2023-08-12T08:57:54;3.00;;;1.75;;
32196;SDS011;18697;42.770;23.400;2023-08-12T09:00:21;2.58;;;2.15;;
32196;SDS011;18697;42.770;23.400;2023-08-12T09:02:47;3.75;;;2.10;;
32196;SDS011;18697;42.770;23.400;2023-08-12T09:05:16;3.42;;;2.63;;
32196;SDS011;18697;42.770;23.400;2023-08-12T09:07:42;2.83;;;1.90;;
32196;SDS011;18697;42.770;23.400;2023-08-12T09:10:10;2.55;;;2.35;;
32196;SDS011;18697;42.770;23.400;2023-08-12T09:12:35;3.13;;;2.45;;
32196;SDS011;18697;42.770;23.400;2023-08-12T09:15:01;3.47;;;1.95;;
32196;SDS011;18697;42.770;23.400;2023-08-12T09:17:27;2.30;;;1.80;;
32196;SDS011;18697;42.770;23.400;2023-08-12T09:19:52;2.90;;;2.30;;
32196;SDS011;18697;42.770;23.400;2023-08-12T09:22:18;2.30;;;2.10;;
32196;SDS011;18697;42.770;23.400;2023-08-12T09:24:43;1.98;;;1.80;;
32196;SDS011;18697;42.770;23.400;2023-08-12T09:27:09;5.07;;;2.03;;
32196;SDS011;18697;42.770;23.400;2023-08-12T09:29:35;2.33;;;2.13;;
32196;SDS011;18697;42.770;23.400;2023-08-12T09:32:11;10.05;;;2.40;;
32196;SDS011;18697;42.770;23.400;2023-08-12T09:34:43;3.03;;;2.05;;
32196;SDS011;18697;42.770;23.400;2023-08-12T09:37:11;4.45;;;2.97;;
32196;SDS011;18697;42.770;23.400;2023-08-12T09:39:38;6.45;;;3.90;;
32196;SDS011;18697;42.770;23.400;2023-08-12T09:42:03;1.90;;;1.80;;
32196;SDS011;18697;42.770;23.400;2023-08-12T09:44:29;1.98;;;1.77;;
32196;SDS011;18697;42.770;23.400;2023-08-12T09:46:58;4.63;;;1.67;;
32196;SDS011;18697;42.770;23.400;2023-08-12T09:49:24;1.70;;;1.60;;
32196;SDS011;18697;42.770;23.400;2023-08-12T09:51:50;2.35;;;2.00;;
32196;SDS011;18697;42.770;23.400;2023-08-12T09:54:16;4.35;;;1.88;;
32196;SDS011;18697;42.770;23.400;2023-08-12T09:56:43;2.42;;;2.13;;
32196;SDS011;18697;42.770;23.400;2023-08-12T09:59:12;2.08;;;1.88;;
32196;SDS011;18697;42.770;23.400;2023-08-12T10:01:44;4.60;;;1.63;;
32196;SDS011;18697;42.770;23.400;2023-08-12T10:04:11;2.80;;;2.47;;
32196;SDS011;18697;42.770;23.400;2023-08-12T10:06:38;2.38;;;1.88;;
32196;SDS011;18697;42.770;23.400;2023-08-12T10:09:05;1.73;;;1.60;;
32196;SDS011;18697;42.770;23.400;2023-08-12T10:11:33;2.63;;;2.42;;
32196;SDS011;18697;42.770;23.400;2023-08-12T10:14:00;5.25;;;2.10;;
32196;SDS011;18697;42.770;23.400;2023-08-12T10:16:26;2.53;;;1.90;;
32196;SDS011;18697;42.770;23.400;2023-08-12T10:18:54;7.85;;;2.15;;
32196;SDS011;18697;42.770;23.400;2023-08-12T10:21:20;1.90;;;1.80;;
32196;SDS011;18697;42.770;23.400;2023-08-12T10:23:47;4.13;;;2.15;;
32196;SDS011;18697;42.770;23.400;2023-08-12T10:26:15;2.92;;;2.63;;
32196;SDS011;18697;42.770;23.400;2023-08-12T10:28:43;4.80;;;2.58;;
32196;SDS011;18697;42.770;23.400;2023-08-12T10:31:10;3.72;;;2.25;;
32196;SDS011;18697;42.770;23.400;2023-08-12T10:33:36;2.90;;;2.10;;
32196;SDS011;18697;42.770;23.400;2023-08-12T10:36:03;1.42;;;1.33;;
32196;SDS011;18697;42.770;23.400;2023-08-12T10:38:30;2.00;;;1.60;;
32196;SDS011;18697;42.770;23.400;2023-08-12T10:43:58;5.93;;;1.70;;
32196;SDS011;18697;42.770;23.400;2023-08-12T10:48:58;4.82;;;1.90;;
32196;SDS011;18697;42.770;23.400;2023-08-12T10:52:00;5.15;;;1.90;;
32196;SDS011;18697;42.770;23.400;2023-08-12T10:54:26;2.25;;;1.60;;
32196;SDS011;18697;42.770;23.400;2023-08-12T11:02:15;3.30;;;1.70;;
32196;SDS011;18697;42.770;23.400;2023-08-12T11:07:33;1.88;;;1.70;;
32196;SDS011;18697;42.770;23.400;2023-08-12T11:10:04;4.40;;;4.00;;
32196;SDS011;18697;42.770;23.400;2023-08-12T11:12:41;2.70;;;1.90;;
32196;SDS011;18697;42.770;23.400;2023-08-12T11:15:10;2.15;;;1.77;;
32196;SDS011;18697;42.770;23.400;2023-08-12T11:17:38;5.60;;;1.90;;
32196;SDS011;18697;42.770;23.400;2023-08-12T11:20:05;7.75;;;2.03;;
32196;SDS011;18697;42.770;23.400;2023-08-12T11:22:34;2.33;;;1.63;;
32196;SDS011;18697;42.770;23.400;2023-08-12T11:25:08;2.05;;;1.63;;
32196;SDS011;18697;42.770;23.400;2023-08-12T11:27:38;3.03;;;1.95;;
32196;SDS011;18697;42.770;23.400;2023-08-12T11:30:05;2.05;;;1.80;;
32196;SDS011;18697;42.770;23.400;2023-08-12T11:32:31;1.77;;;1.50;;
32196;SDS011;18697;42.770;23.400;2023-08-12T11:34:57;2.10;;;1.98;;
32196;SDS011;18697;42.770;23.400;2023-08-12T11:37:23;3.90;;;2.38;;
32196;SDS011;18697;42.770;23.400;2023-08-12T11:39:51;4.28;;;1.80;;
32196;SDS011;18697;42.770;23.400;2023-08-12T11:42:17;3.60;;;2.50;;
32196;SDS011;18697;42.770;23.400;2023-08-12T11:44:42;2.03;;;1.83;;
32196;SDS011;18697;42.770;23.400;2023-08-12T11:47:08;2.05;;;1.85;;
32196;SDS011;18697;42.770;23.400;2023-08-12T11:49:33;15.55;;;2.35;;
32196;SDS011;18697;42.770;23.400;2023-08-12T11:51:59;2.45;;;2.10;;
32196;SDS011;18697;42.770;23.400;2023-08-12T11:54:24;2.50;;;2.10;;
32196;SDS011;18697;42.770;23.400;2023-08-12T11:56:50;1.75;;;1.60;;
32196;SDS011;18697;42.770;23.400;2023-08-12T11:59:17;2.13;;;1.95;;
32196;SDS011;18697;42.770;23.400;2023-08-12T12:01:46;3.25;;;1.90;;
32196;SDS011;18697;42.770;23.400;2023-08-12T12:04:13;2.55;;;1.60;;
32196;SDS011;18697;42.770;23.400;2023-08-12T12:06:39;1.75;;;1.65;;
32196;SDS011;18697;42.770;23.400;2023-08-12T12:09:08;5.30;;;1.60;;
32196;SDS011;18697;42.770;23.400;2023-08-12T12:11:37;1.88;;;1.77;;
32196;SDS011;18697;42.770;23.400;2023-08-12T12:14:04;3.60;;;1.70;;
32196;SDS011;18697;42.770;23.400;2023-08-12T12:16:40;1.55;;;1.45;;
32196;SDS011;18697;42.770;23.400;2023-08-12T12:19:19;2.40;;;1.58;;
32196;SDS011;18697;42.770;23.400;2023-08-12T12:21:47;2.60;;;1.50;;
32196;SDS011;18697;42.770;23.400;2023-08-12T12:24:14;1.65;;;1.55;;
32196;SDS011;18697;42.770;23.400;2023-08-12T12:26:39;2.53;;;1.27;;
32196;SDS011;18697;42.770;23.400;2023-08-12T12:29:06;1.48;;;1.38;;
32196;SDS011;18697;42.770;23.400;2023-08-12T12:31:33;3.15;;;2.28;;
32196;SDS011;18697;42.770;23.400;2023-08-12T12:34:00;1.40;;;1.30;;
32196;SDS011;18697;42.770;23.400;2023-08-12T12:36:25;2.17;;;1.50;;
32196;SDS011;18697;42.770;23.400;2023-08-12T12:38:51;2.72;;;1.70;;
32196;SDS011;18697;42.770;23.400;2023-08-12T12:41:17;4.13;;;1.10;;
32196;SDS011;18697;42.770;23.400;2023-08-12T12:43:42;1.33;;;1.23;;
32196;SDS011;18697;42.770;23.400;2023-08-12T12:46:07;6.57;;;3.85;;
32196;SDS011;18697;42.770;23.400;2023-08-12T12:48:33;5.45;;;3.60;;
32196;SDS011;18697;42.770;23.400;2023-08-12T12:50:59;3.25;;;2.65;;
32196;SDS011;18697;42.770;23.400;2023-08-12T12:53:24;2.63;;;1.55;;
32196;SDS011;18697;42.770;23.400;2023-08-12T12:55:49;3.35;;;1.27;;
32196;SDS011;18697;42.770;23.400;2023-08-12T12:58:15;1.05;;;0.95;;
32196;SDS011;18697;42.770;23.400;2023-08-12T13:00:41;1.10;;;1.00;;
32196;SDS011;18697;42.770;23.400;2023-08-12T13:03:07;2.20;;;1.35;;
32196;SDS011;18697;42.770;23.400;2023-08-12T13:05:32;1.85;;;1.50;;
32196;SDS011;18697;42.770;23.400;2023-08-12T13:07:57;1.30;;;1.20;;
32196;SDS011;18697;42.770;23.400;2023-08-12T13:10:23;2.55;;;1.25;;
32196;SDS011;18697;42.770;23.400;2023-08-12T13:12:48;3.55;;;1.20;;
32196;SDS011;18697;42.770;23.400;2023-08-12T13:15:14;0.93;;;0.93;;
32196;SDS011;18697;42.770;23.400;2023-08-12T13:17:39;3.25;;;1.10;;
32196;SDS011;18697;42.770;23.400;2023-08-12T13:20:05;1.77;;;0.93;;
32196;SDS011;18697;42.770;23.400;2023-08-12T13:22:31;1.55;;;1.17;;
32196;SDS011;18697;42.770;23.400;2023-08-12T13:24:56;1.52;;;1.10;;
32196;SDS011;18697;42.770;23.400;2023-08-12T13:27:21;5.10;;;1.70;;
32196;SDS011;18697;42.770;23.400;2023-08-12T13:29:48;1.67;;;1.25;;
32196;SDS011;18697;42.770;23.400;2023-08-12T13:32:13;1.25;;;0.93;;
32196;SDS011;18697;42.770;23.400;2023-08-12T13:34:39;2.80;;;0.98;;
32196;SDS011;18697;42.770;23.400;2023-08-12T13:37:04;1.20;;;1.10;;
32196;SDS011;18697;42.770;23.400;2023-08-12T13:39:30;1.88;;;1.20;;
32196;SDS011;18697;42.770;23.400;2023-08-12T13:41:56;1.13;;;1.02;;
32196;SDS011;18697;42.770;23.400;2023-08-12T13:44:21;1.10;;;1.10;;
32196;SDS011;18697;42.770;23.400;2023-08-12T13:46:47;1.58;;;1.02;;
32196;SDS011;18697;42.770;23.400;2023-08-12T13:49:12;2.00;;;1.20;;
32196;SDS011;18697;42.770;23.400;2023-08-12T13:51:37;1.02;;;1.02;;
32196;SDS011;18697;42.770;23.400;2023-08-12T13:54:03;1.15;;;0.98;;
32196;SDS011;18697;42.770;23.400;2023-08-12T13:56:28;1.13;;;1.02;;
32196;SDS011;18697;42.770;23.400;2023-08-12T13:58:54;3.58;;;0.90;;
32196;SDS011;18697;42.770;23.400;2023-08-12T14:01:19;7.13;;;2.92;;
32196;SDS011;18697;42.770;23.400;2023-08-12T14:03:46;1.73;;;1.25;;
32196;SDS011;18697;42.770;23.400;2023-08-12T14:06:12;1.50;;;1.15;;
32196;SDS011;18697;42.770;23.400;2023-08-12T14:08:37;1.45;;;1.20;;
32196;SDS011;18697;42.770;23.400;2023-08-12T14:11:02;4.53;;;1.17;;
32196;SDS011;18697;42.770;23.400;2023-08-12T14:13:28;10.63;;;1.33;;
32196;SDS011;18697;42.770;23.400;2023-08-12T14:15:54;1.77;;;1.30;;
32196;SDS011;18697;42.770;23.400;2023-08-12T14:18:19;3.72;;;1.10;;
32196;SDS011;18697;42.770;23.400;2023-08-12T14:20:45;2.05;;;1.10;;
32196;SDS011;18697;42.770;23.400;2023-08-12T14:23:10;2.00;;;1.23;;
32196;SDS011;18697;42.770;23.400;2023-08-12T14:25:36;1.58;;;1.15;;
32196;SDS011;18697;42.770;23.400;2023-08-12T14:28:01;5.18;;;0.98;;
32196;SDS011;18697;42.770;23.400;2023-08-12T14:30:26;1.42;;;1.33;;
32196;SDS011;18697;42.770;23.400;2023-08-12T14:32:52;2.70;;;1.20;;
32196;SDS011;18697;42.770;23.400;2023-08-12T14:35:18;3.65;;;1.38;;
32196;SDS011;18697;42.770;23.400;2023-08-12T14:37:43;2.97;;;1.15;;
32196;SDS011;18697;42.770;23.400;2023-08-12T14:40:09;3.95;;;1.52;;
32196;SDS011;18697;42.770;23.400;2023-08-12T14:42:34;1.40;;;1.30;;
32196;SDS011;18697;42.770;23.400;2023-08-12T14:45:00;3.30;;;1.75;;